ěÝzenÝ letovÚho provozu ╚eskÚ republiky
Letiste: LKPJ Aktualizace: 27.02.2024 12:00:52  UTC
 METAR LKPJ 27.02. 12:00 ...
METAR LKPJ 271200Z AUTO 15003KT 110V210 9999 // FEW033/// 15/08 Q1012=